createdAt,value
2023-02-25T00:01:32.372Z,95144.38
2023-02-25T00:03:59.604Z,95147.78
2023-02-25T00:06:26.846Z,95146.38
2023-02-25T00:08:54.331Z,95146.38
2023-02-25T00:11:23.855Z,95139.56
2023-02-25T00:13:51.043Z,95142.38
2023-02-25T00:16:19.364Z,95131.13
2023-02-25T00:18:46.986Z,95132.91
2023-02-25T00:21:16.643Z,95137.16
2023-02-25T00:23:47.656Z,95144.00
2023-02-25T00:26:17.029Z,95135.94
2023-02-25T00:28:44.506Z,95129.94
2023-02-25T00:31:18.693Z,95130.75
2023-02-25T00:33:45.628Z,95132.34
2023-02-25T00:36:20.056Z,95137.56
2023-02-25T00:38:48.555Z,95149.00
2023-02-25T00:41:18.241Z,95157.66
2023-02-25T00:43:51.630Z,95162.38
2023-02-25T00:46:20.033Z,95165.25
2023-02-25T00:48:46.975Z,95162.63
2023-02-25T00:51:21.622Z,95174.50
2023-02-25T00:53:48.677Z,95162.44
2023-02-25T00:56:17.360Z,95149.19
2023-02-25T00:58:45.516Z,95159.97
2023-02-25T01:01:21.076Z,95152.41
2023-02-25T01:03:49.340Z,95140.78
2023-02-25T01:06:16.805Z,95159.44
2023-02-25T01:08:44.311Z,95151.59
2023-02-25T01:11:21.392Z,95158.78
2023-02-25T01:13:49.858Z,95161.06
2023-02-25T01:16:23.914Z,95173.84
2023-02-25T01:18:56.293Z,95154.44
2023-02-25T01:21:31.944Z,95158.63
2023-02-25T01:24:12.279Z,95177.31
2023-02-25T01:26:42.213Z,95184.88
2023-02-25T01:29:12.830Z,95185.31
2023-02-25T01:31:40.271Z,95178.13
2023-02-25T01:34:10.757Z,95181.09
2023-02-25T01:36:37.663Z,95184.31
2023-02-25T01:39:05.524Z,95178.94
2023-02-25T01:41:34.600Z,95181.31
2023-02-25T01:44:30.011Z,95182.16
2023-02-25T01:46:57.191Z,95168.28
2023-02-25T01:49:45.025Z,95170.06
2023-02-25T01:52:19.360Z,95176.72
2023-02-25T01:54:49.247Z,95186.34
2023-02-25T01:57:18.403Z,95173.28
2023-02-25T01:59:47.091Z,95180.28
2023-02-25T02:02:19.238Z,95190.31
2023-02-25T02:04:51.179Z,95184.13
2023-02-25T02:07:20.659Z,95183.72
2023-02-25T02:09:56.411Z,95184.72
2023-02-25T02:12:40.161Z,95186.13
2023-02-25T02:15:11.806Z,95176.72
2023-02-25T02:17:49.736Z,95182.53
2023-02-25T02:20:20.618Z,95185.63
2023-02-25T02:23:22.075Z,95192.56
2023-02-25T02:25:57.596Z,95191.72
2023-02-25T02:28:58.219Z,95192.16
2023-02-25T02:32:02.692Z,95200.59
2023-02-25T02:34:41.625Z,95195.78
2023-02-25T02:37:28.766Z,95186.66
2023-02-25T02:40:05.848Z,95198.97
2023-02-25T02:42:40.897Z,95196.84
2023-02-25T02:45:38.699Z,95184.38
2023-02-25T02:48:34.136Z,95190.63
2023-02-25T02:51:06.495Z,95203.53
2023-02-25T02:53:41.155Z,95199.88
2023-02-25T02:56:13.365Z,95194.72
2023-02-25T02:59:05.803Z,95198.34
2023-02-25T03:01:44.463Z,95208.34
2023-02-25T03:04:18.145Z,95209.47
2023-02-25T03:06:49.158Z,95213.81
2023-02-25T03:09:22.876Z,95207.53
2023-02-25T03:11:49.685Z,95196.28
2023-02-25T03:14:16.640Z,95199.03
2023-02-25T03:16:55.214Z,95208.91
2023-02-25T03:19:31.527Z,95213.97
2023-02-25T03:22:17.381Z,95213.19
2023-02-25T03:24:54.499Z,95205.63
2023-02-25T03:27:39.131Z,95210.03
2023-02-25T03:30:25.738Z,95211.91
2023-02-25T03:33:12.968Z,95214.34
2023-02-25T03:35:42.476Z,95221.84
2023-02-25T03:38:17.362Z,95225.00
2023-02-25T03:40:47.467Z,95220.72
2023-02-25T03:43:18.481Z,95236.91
2023-02-25T03:45:45.666Z,95236.28
2023-02-25T03:48:14.162Z,95252.28
2023-02-25T03:50:52.005Z,95234.38
2023-02-25T03:53:18.834Z,95244.75
2023-02-25T03:55:46.767Z,95230.38
2023-02-25T03:58:13.580Z,95236.03
2023-02-25T04:00:42.828Z,95253.69
2023-02-25T04:03:09.931Z,95243.06
2023-02-25T04:05:37.545Z,95250.16
2023-02-25T04:08:16.082Z,95248.31
2023-02-25T04:10:44.322Z,95251.22
2023-02-25T04:13:12.664Z,95266.53
2023-02-25T04:15:39.599Z,95254.50
2023-02-25T04:18:06.904Z,95261.59
2023-02-25T04:20:34.155Z,95259.84
2023-02-25T04:23:01.791Z,95257.47
2023-02-25T04:25:28.847Z,95270.31
2023-02-25T04:27:55.731Z,95271.44
2023-02-25T04:30:22.519Z,95270.50
2023-02-25T04:32:49.416Z,95277.94
2023-02-25T04:35:16.447Z,95271.53
2023-02-25T04:37:44.033Z,95270.72
2023-02-25T04:40:17.056Z,95265.09
2023-02-25T04:42:44.431Z,95265.38
2023-02-25T04:45:12.782Z,95264.78
2023-02-25T04:47:39.783Z,95270.59
2023-02-25T04:50:08.557Z,95274.31
2023-02-25T04:52:36.042Z,95270.34
2023-02-25T04:55:03.844Z,95277.53
2023-02-25T04:57:30.702Z,95271.09
2023-02-25T04:59:57.499Z,95279.47
2023-02-25T05:02:24.315Z,95272.66
2023-02-25T05:04:51.135Z,95275.16
2023-02-25T05:07:18.014Z,95275.13
2023-02-25T05:09:44.884Z,95269.53
2023-02-25T05:12:11.774Z,95280.19
2023-02-25T05:14:38.558Z,95285.25
2023-02-25T05:17:05.372Z,95285.91
2023-02-25T05:19:32.566Z,95291.19
2023-02-25T05:21:59.394Z,95297.56
2023-02-25T05:24:26.273Z,95290.31
2023-02-25T05:26:53.190Z,95296.34
2023-02-25T05:29:20.713Z,95300.41
2023-02-25T05:31:47.846Z,95305.97
2023-02-25T05:34:17.310Z,95308.81
2023-02-25T05:36:44.194Z,95299.19
2023-02-25T05:39:13.516Z,95298.78
2023-02-25T05:41:40.564Z,95318.91
2023-02-25T05:44:07.947Z,95304.69
2023-02-25T05:46:34.874Z,95307.41
2023-02-25T05:49:01.930Z,95309.44
2023-02-25T05:51:28.792Z,95300.34
2023-02-25T05:53:57.309Z,95307.22
2023-02-25T05:56:26.278Z,95309.22
2023-02-25T05:58:54.665Z,95313.53
2023-02-25T06:01:27.542Z,95311.53
2023-02-25T06:03:58.321Z,95308.31
2023-02-25T06:06:29.585Z,95316.69
2023-02-25T06:08:56.668Z,95318.56
2023-02-25T06:11:27.536Z,95333.66
2023-02-25T06:13:56.122Z,95329.88
2023-02-25T06:16:25.782Z,95328.47
2023-02-25T06:18:53.221Z,95331.50
2023-02-25T06:21:20.218Z,95334.69
2023-02-25T06:23:50.047Z,95338.59
2023-02-25T06:26:16.943Z,95350.03
2023-02-25T06:28:43.909Z,95338.63
2023-02-25T06:31:14.530Z,95344.03
2023-02-25T06:33:41.460Z,95354.47
2023-02-25T06:36:08.938Z,95343.41
2023-02-25T06:38:36.332Z,95347.84
2023-02-25T06:41:15.410Z,95351.84
2023-02-25T06:43:42.755Z,95353.69
2023-02-25T06:46:13.885Z,95354.78
2023-02-25T06:48:41.090Z,95356.22
2023-02-25T06:51:09.578Z,95359.31
2023-02-25T06:53:42.361Z,95359.50
2023-02-25T06:56:12.608Z,95349.09
2023-02-25T06:58:39.963Z,95350.34
2023-02-25T07:01:11.682Z,95364.41
2023-02-25T07:03:38.557Z,95366.88
2023-02-25T07:06:06.179Z,95369.06
2023-02-25T07:08:33.452Z,95366.09
2023-02-25T07:11:18.609Z,95367.16
2023-02-25T07:13:49.601Z,95366.84
2023-02-25T07:16:17.407Z,95377.19
2023-02-25T07:18:45.043Z,95376.75
2023-02-25T07:21:12.938Z,95364.59
2023-02-25T07:23:41.417Z,95373.56
2023-02-25T07:26:12.162Z,95384.13
2023-02-25T07:28:39.782Z,95387.84
2023-02-25T07:31:17.312Z,95376.00
2023-02-25T07:33:44.715Z,95386.50
2023-02-25T07:36:12.972Z,95383.34
2023-02-25T07:38:40.427Z,95383.22
2023-02-25T07:41:13.804Z,95388.19
2023-02-25T07:43:41.604Z,95381.97
2023-02-25T07:46:09.529Z,95385.91
2023-02-25T07:48:37.080Z,95393.56
2023-02-25T07:51:18.542Z,95387.56
2023-02-25T07:53:47.498Z,95380.72
2023-02-25T07:56:15.752Z,95377.91
2023-02-25T07:58:43.023Z,95365.81
2023-02-25T08:01:18.964Z,95365.19
2023-02-25T08:03:49.151Z,95379.09
2023-02-25T08:06:15.951Z,95367.31
2023-02-25T08:08:43.815Z,95367.84
2023-02-25T08:11:13.708Z,95360.09
2023-02-25T08:13:42.073Z,95370.03
2023-02-25T08:16:13.200Z,95364.25
2023-02-25T08:18:43.750Z,95363.19
2023-02-25T08:21:13.269Z,95366.47
2023-02-25T08:23:40.445Z,95362.72
2023-02-25T08:26:09.580Z,95353.41
2023-02-25T08:28:37.440Z,95374.81
2023-02-25T08:31:07.998Z,95361.63
2023-02-25T08:33:35.042Z,95364.00
2023-02-25T08:36:31.235Z,95366.38
2023-02-25T08:39:00.039Z,95360.28
2023-02-25T08:41:28.536Z,95351.84
2023-02-25T08:43:57.221Z,95355.91
2023-02-25T08:46:27.111Z,95355.06
2023-02-25T08:48:55.168Z,95349.59
2023-02-25T08:51:33.771Z,95367.03
2023-02-25T08:54:11.906Z,95375.13
2023-02-25T08:56:44.238Z,95368.47
2023-02-25T08:59:14.223Z,95370.13
2023-02-25T09:01:48.921Z,95374.50
2023-02-25T09:04:19.681Z,95374.75
2023-02-25T09:06:49.542Z,95371.78
2023-02-25T09:09:19.009Z,95370.56
2023-02-25T09:11:48.050Z,95369.28
2023-02-25T09:14:15.474Z,95376.06
2023-02-25T09:16:42.443Z,95374.06
2023-02-25T09:19:10.832Z,95371.19
2023-02-25T09:21:40.318Z,95364.09
2023-02-25T09:24:08.612Z,95369.06
2023-02-25T09:26:35.865Z,95350.06
2023-02-25T09:29:04.986Z,95356.97
2023-02-25T09:31:33.636Z,95360.50
2023-02-25T09:34:04.524Z,95359.53
2023-02-25T09:36:33.701Z,95359.91
2023-02-25T09:39:00.861Z,95363.88
2023-02-25T09:41:46.129Z,95364.25
2023-02-25T09:44:24.107Z,95369.28
2023-02-25T09:47:12.042Z,95366.41
2023-02-25T09:49:46.847Z,95358.38
2023-02-25T09:52:24.204Z,95357.59
2023-02-25T09:55:18.423Z,95350.47
2023-02-25T09:58:14.021Z,95357.97
2023-02-25T10:00:55.288Z,95356.72
2023-02-25T10:03:59.515Z,95357.22
2023-02-25T10:06:39.453Z,95353.69
2023-02-25T10:09:31.375Z,95342.84
2023-02-25T10:12:24.041Z,95349.75
2023-02-25T10:15:08.260Z,95342.19
2023-02-25T10:17:59.351Z,95348.72
2023-02-25T10:20:49.788Z,95348.59
2023-02-25T10:23:39.315Z,95348.16
2023-02-25T10:26:10.403Z,95342.03
2023-02-25T10:28:40.702Z,95344.34
2023-02-25T10:31:14.667Z,95344.94
2023-02-25T10:33:44.793Z,95330.72
2023-02-25T10:36:18.980Z,95331.47
2023-02-25T10:38:55.082Z,95329.38
2023-02-25T10:41:26.497Z,95334.94
2023-02-25T10:43:55.061Z,95333.09
2023-02-25T10:46:33.234Z,95333.22
2023-02-25T10:49:16.262Z,95335.53
2023-02-25T10:52:15.096Z,95330.94
2023-02-25T10:54:53.489Z,95343.63
2023-02-25T10:57:41.325Z,95341.84
2023-02-25T11:00:33.953Z,95340.56
2023-02-25T11:03:02.017Z,95335.41
2023-02-25T11:05:43.651Z,95330.06
2023-02-25T11:08:33.093Z,95328.44
2023-02-25T11:11:32.140Z,95315.06
2023-02-25T11:14:06.715Z,95316.13
2023-02-25T11:16:37.805Z,95322.22
2023-02-25T11:19:29.574Z,95320.47
2023-02-25T11:21:59.108Z,95313.59
2023-02-25T11:24:34.315Z,95310.75
2023-02-25T11:27:04.876Z,95308.19
2023-02-25T11:29:39.245Z,95310.41
2023-02-25T11:32:33.726Z,95300.97
2023-02-25T11:35:11.268Z,95304.63
2023-02-25T11:37:48.204Z,95299.97
2023-02-25T11:40:27.601Z,95304.97
2023-02-25T11:43:05.078Z,95306.28
2023-02-25T11:45:36.020Z,95312.84
2023-02-25T11:48:05.702Z,95305.09
2023-02-25T11:51:00.514Z,95303.59
2023-02-25T11:53:48.149Z,95284.94
2023-02-25T11:56:39.478Z,95291.34
2023-02-25T11:59:33.877Z,95291.84
2023-02-25T12:02:20.906Z,95273.81
2023-02-25T12:05:16.811Z,95264.72
2023-02-25T12:07:59.913Z,95263.50
2023-02-25T12:11:12.989Z,95264.66
2023-02-25T12:14:40.111Z,95264.59
2023-02-25T12:17:51.035Z,95270.59
2023-02-25T12:20:50.275Z,95260.19
2023-02-25T12:24:02.574Z,95258.75
2023-02-25T12:26:41.293Z,95261.16
2023-02-25T12:29:35.122Z,95269.59
2023-02-25T12:32:34.775Z,95264.44
2023-02-25T12:35:26.569Z,95254.63
2023-02-25T12:38:36.056Z,95258.91
2023-02-25T12:41:17.712Z,95256.03
2023-02-25T12:44:34.575Z,95257.66
2023-02-25T12:47:07.168Z,95261.47
2023-02-25T12:50:30.061Z,95268.03
2023-02-25T12:53:43.826Z,95273.59
2023-02-25T12:56:16.821Z,95271.88
2023-02-25T12:59:04.618Z,95265.78
2023-02-25T13:02:01.961Z,95265.31
2023-02-25T13:05:08.285Z,95268.22
2023-02-25T13:07:42.394Z,95264.72
2023-02-25T13:10:31.306Z,95267.97
2023-02-25T13:13:50.620Z,95270.78
2023-02-25T13:16:34.654Z,95273.81
2023-02-25T13:19:36.880Z,95266.41
2023-02-25T13:22:12.499Z,95275.59
2023-02-25T13:25:25.467Z,95266.88
2023-02-25T13:28:29.774Z,95269.06
2023-02-25T13:31:08.338Z,95278.69
2023-02-25T13:34:18.128Z,95264.47
2023-02-25T13:36:58.355Z,95272.75
2023-02-25T13:39:53.241Z,95282.28
2023-02-25T13:42:54.426Z,95268.00
2023-02-25T13:45:34.085Z,95275.16
2023-02-25T13:48:26.968Z,95270.53
2023-02-25T13:51:13.951Z,95280.47
2023-02-25T13:54:13.956Z,95268.88
2023-02-25T13:57:14.702Z,95265.72
2023-02-25T14:00:24.022Z,95263.47
2023-02-25T14:03:15.236Z,95264.41
2023-02-25T14:06:15.009Z,95270.59
2023-02-25T14:09:06.529Z,95276.00
2023-02-25T14:12:11.601Z,95275.44
2023-02-25T14:15:08.325Z,95289.19
2023-02-25T14:18:15.126Z,95293.63
2023-02-25T14:21:18.258Z,95285.91
2023-02-25T14:23:57.285Z,95288.91
2023-02-25T14:26:37.546Z,95294.31
2023-02-25T14:30:13.755Z,95285.63
2023-02-25T14:32:53.510Z,95280.69
2023-02-25T14:35:42.143Z,95287.25
2023-02-25T14:38:46.579Z,95283.97
2023-02-25T14:41:52.472Z,95290.00
2023-02-25T14:44:44.114Z,95294.69
2023-02-25T14:47:21.633Z,95293.13
2023-02-25T14:50:16.216Z,95291.94
2023-02-25T14:53:25.743Z,95293.56
2023-02-25T14:56:20.910Z,95290.56
2023-02-25T14:59:18.435Z,95285.69
2023-02-25T15:02:09.770Z,95289.16
2023-02-25T15:04:56.443Z,95300.16
2023-02-25T15:08:03.829Z,95292.94
2023-02-25T15:11:11.803Z,95300.94
2023-02-25T15:13:59.836Z,95311.88
2023-02-25T15:16:51.348Z,95310.63
2023-02-25T15:19:37.856Z,95307.75
2023-02-25T15:22:24.859Z,95306.44
2023-02-25T15:24:55.337Z,95305.72
2023-02-25T15:27:37.125Z,95316.97
2023-02-25T15:30:14.351Z,95309.94
2023-02-25T15:32:55.802Z,95311.56
2023-02-25T15:35:50.016Z,95309.25
2023-02-25T15:38:39.219Z,95317.72
2023-02-25T15:41:29.360Z,95320.97
2023-02-25T15:44:12.525Z,95314.88
2023-02-25T15:46:44.745Z,95322.78
2023-02-25T15:49:28.413Z,95323.91
2023-02-25T15:52:04.188Z,95323.91
2023-02-25T15:54:31.308Z,95319.72
2023-02-25T15:57:22.419Z,95315.28
2023-02-25T15:59:57.450Z,95323.97
2023-02-25T16:02:29.940Z,95320.41
2023-02-25T16:05:19.704Z,95333.28
2023-02-25T16:08:02.081Z,95342.06
2023-02-25T16:10:51.420Z,95350.16
2023-02-25T16:13:37.520Z,95340.91
2023-02-25T16:16:05.867Z,95346.53
2023-02-25T16:18:45.451Z,95348.53
2023-02-25T16:21:30.447Z,95343.72
2023-02-25T16:24:00.245Z,95354.56
2023-02-25T16:26:45.529Z,95350.94
2023-02-25T16:29:29.542Z,95350.94
2023-02-25T16:32:05.118Z,95368.06
2023-02-25T16:35:01.562Z,95383.44
2023-02-25T16:37:46.313Z,95395.78
2023-02-25T16:40:30.901Z,95406.75
2023-02-25T16:42:59.249Z,95402.97
2023-02-25T16:45:34.180Z,95413.44
2023-02-25T16:48:08.396Z,95408.16
2023-02-25T16:50:36.409Z,95415.72
2023-02-25T16:53:04.102Z,95428.22
2023-02-25T16:55:40.489Z,95437.44
2023-02-25T16:58:19.446Z,95447.28
2023-02-25T17:01:03.838Z,95443.88
2023-02-25T17:03:46.480Z,95437.59
2023-02-25T17:06:20.472Z,95448.09
2023-02-25T17:08:50.494Z,95457.41
2023-02-25T17:11:23.572Z,95457.94
2023-02-25T17:13:55.689Z,95462.03
2023-02-25T17:16:34.975Z,95457.19
2023-02-25T17:19:06.168Z,95463.66
2023-02-25T17:21:39.768Z,95468.47
2023-02-25T17:24:13.460Z,95480.28
2023-02-25T17:26:46.325Z,95472.63
2023-02-25T17:29:16.722Z,95475.13
2023-02-25T17:31:54.012Z,95478.81
2023-02-25T17:34:33.185Z,95489.44
2023-02-25T17:37:06.888Z,95488.06
2023-02-25T17:39:33.908Z,95498.09
2023-02-25T17:42:00.965Z,95481.72
2023-02-25T17:44:37.591Z,95500.78
2023-02-25T17:47:07.988Z,95509.25
2023-02-25T17:49:36.741Z,95507.97
2023-02-25T17:52:08.019Z,95504.75
2023-02-25T17:54:37.478Z,95496.69
2023-02-25T17:57:20.354Z,95516.06
2023-02-25T18:00:22.835Z,95519.56
2023-02-25T18:03:21.682Z,95522.72
2023-02-25T18:05:59.175Z,95513.16
2023-02-25T18:08:31.484Z,95520.66
2023-02-25T18:11:19.064Z,95520.03
2023-02-25T18:13:45.960Z,95527.94
2023-02-25T18:16:44.807Z,95520.38
2023-02-25T18:19:40.409Z,95525.34
2023-02-25T18:22:43.201Z,95530.25
2023-02-25T18:25:30.435Z,95545.94
2023-02-25T18:27:57.330Z,95524.84
2023-02-25T18:30:27.589Z,95528.44
2023-02-25T18:32:54.826Z,95536.59
2023-02-25T18:35:22.179Z,95541.56
2023-02-25T18:37:52.639Z,95538.34
2023-02-25T18:40:38.097Z,95541.13
2023-02-25T18:43:05.878Z,95543.88
2023-02-25T18:45:34.261Z,95541.78
2023-02-25T18:48:01.707Z,95539.75
2023-02-25T18:50:32.984Z,95532.47
2023-02-25T18:53:01.128Z,95540.19
2023-02-25T18:55:31.564Z,95534.44
2023-02-25T18:57:58.900Z,95549.31
2023-02-25T19:00:27.379Z,95556.03
2023-02-25T19:02:59.509Z,95553.13
2023-02-25T19:05:27.735Z,95560.97
2023-02-25T19:07:55.140Z,95546.91
2023-02-25T19:10:34.117Z,95544.72
2023-02-25T19:13:06.438Z,95552.91
2023-02-25T19:15:34.237Z,95554.94
2023-02-25T19:18:01.258Z,95554.41
2023-02-25T19:20:28.256Z,95553.47
2023-02-25T19:22:55.118Z,95556.63
2023-02-25T19:25:28.968Z,95551.47
2023-02-25T19:27:57.424Z,95555.31
2023-02-25T19:30:31.011Z,95552.69
2023-02-25T19:33:02.820Z,95550.03
2023-02-25T19:35:35.278Z,95563.22
2023-02-25T19:38:03.329Z,95552.91
2023-02-25T19:40:31.094Z,95556.97
2023-02-25T19:42:58.574Z,95554.28
2023-02-25T19:45:26.665Z,95565.75
2023-02-25T19:47:55.137Z,95562.88
2023-02-25T19:50:25.137Z,95569.22
2023-02-25T19:52:54.453Z,95567.91
2023-02-25T19:55:22.518Z,95561.41
2023-02-25T19:57:49.363Z,95568.88
2023-02-25T20:00:21.167Z,95567.00
2023-02-25T20:02:48.277Z,95569.53
2023-02-25T20:05:15.991Z,95567.22
2023-02-25T20:07:43.235Z,95575.00
2023-02-25T20:10:12.981Z,95577.97
2023-02-25T20:12:42.216Z,95572.19
2023-02-25T20:15:11.223Z,95581.88
2023-02-25T20:17:43.075Z,95583.31
2023-02-25T20:20:12.639Z,95584.25
2023-02-25T20:22:40.414Z,95580.50
2023-02-25T20:25:10.051Z,95583.97
2023-02-25T20:27:39.608Z,95584.56
2023-02-25T20:30:08.002Z,95581.75
2023-02-25T20:32:35.179Z,95582.13
2023-02-25T20:35:02.710Z,95568.53
2023-02-25T20:37:35.548Z,95588.09
2023-02-25T20:40:03.671Z,95583.81
2023-02-25T20:42:31.585Z,95585.66
2023-02-25T20:44:59.704Z,95584.41
2023-02-25T20:47:35.103Z,95586.63
2023-02-25T20:50:04.765Z,95590.69
2023-02-25T20:52:33.618Z,95595.16
2023-02-25T20:55:00.736Z,95587.00
2023-02-25T20:57:27.830Z,95589.94
2023-02-25T20:59:54.965Z,95585.66
2023-02-25T21:02:21.967Z,95589.22
2023-02-25T21:04:50.377Z,95593.88
2023-02-25T21:07:17.390Z,95589.72
2023-02-25T21:09:44.317Z,95594.97
2023-02-25T21:12:11.172Z,95594.44
2023-02-25T21:14:37.999Z,95592.38
2023-02-25T21:17:09.395Z,95598.44
2023-02-25T21:19:38.501Z,95598.31
2023-02-25T21:22:06.746Z,95602.25
2023-02-25T21:24:34.573Z,95624.59
2023-02-25T21:27:03.100Z,95623.72
2023-02-25T21:29:29.963Z,95626.78
2023-02-25T21:31:57.075Z,95631.31
2023-02-25T21:34:23.869Z,95632.75
2023-02-25T21:36:51.123Z,95633.19
2023-02-25T21:39:18.281Z,95636.59
2023-02-25T21:41:45.130Z,95632.84
2023-02-25T21:44:13.114Z,95628.75
2023-02-25T21:46:41.543Z,95630.88
2023-02-25T21:49:10.472Z,95630.88
2023-02-25T21:51:37.585Z,95630.72
2023-02-25T21:54:04.598Z,95638.06
2023-02-25T21:56:31.435Z,95633.19
2023-02-25T21:59:00.923Z,95631.56
2023-02-25T22:01:34.569Z,95638.06
2023-02-25T22:04:02.316Z,95630.75
2023-02-25T22:06:29.311Z,95639.56
2023-02-25T22:08:58.073Z,95634.47
2023-02-25T22:11:34.147Z,95633.06
2023-02-25T22:14:03.510Z,95637.81
2023-02-25T22:16:30.332Z,95641.72
2023-02-25T22:18:57.953Z,95638.22
2023-02-25T22:21:28.940Z,95633.38
2023-02-25T22:23:59.307Z,95647.41
2023-02-25T22:26:29.996Z,95648.25
2023-02-25T22:29:00.553Z,95648.53
2023-02-25T22:31:28.426Z,95646.91
2023-02-25T22:33:57.242Z,95646.91
2023-02-25T22:36:25.255Z,95649.91
2023-02-25T22:38:52.472Z,95643.09
2023-02-25T22:41:26.689Z,95644.13
2023-02-25T22:43:54.512Z,95657.06
2023-02-25T22:46:28.629Z,95642.75
2023-02-25T22:48:56.160Z,95657.31
2023-02-25T22:51:28.364Z,95644.63
2023-02-25T22:53:56.560Z,95643.94
2023-02-25T22:56:24.408Z,95637.78
2023-02-25T22:58:52.212Z,95644.97
2023-02-25T23:01:22.009Z,95633.47
2023-02-25T23:03:50.793Z,95633.44
2023-02-25T23:06:20.702Z,95633.44
2023-02-25T23:08:48.077Z,95638.81
2023-02-25T23:11:30.502Z,95647.81
2023-02-25T23:14:00.570Z,95646.34
2023-02-25T23:16:40.398Z,95651.44
2023-02-25T23:19:09.750Z,95661.19
2023-02-25T23:21:38.532Z,95655.81
2023-02-25T23:24:07.617Z,95662.88
2023-02-25T23:26:40.334Z,95658.75
2023-02-25T23:29:09.821Z,95665.09
2023-02-25T23:31:41.625Z,95663.28
2023-02-25T23:34:12.944Z,95663.28
2023-02-25T23:36:42.225Z,95667.78
2023-02-25T23:39:10.702Z,95665.38
2023-02-25T23:41:38.600Z,95676.97
2023-02-25T23:44:08.396Z,95670.13
2023-02-25T23:46:36.437Z,95673.31
2023-02-25T23:49:06.780Z,95677.72
2023-02-25T23:51:34.846Z,95678.09
2023-02-25T23:54:05.731Z,95679.19
2023-02-25T23:56:33.667Z,95683.44
2023-02-25T23:59:00.734Z,95677.25
